sensor_id;sensor_type;location;lat;lon;timestamp;pressure;altitude;pressure_sealevel;temperature;humidity
29569;BME280;16501;51.462;14.346;2023-07-09T00:01:49;100597.00;;;21.56;52.94
29569;BME280;16501;51.462;14.346;2023-07-09T00:04:15;100609.09;;;21.62;53.29
29569;BME280;16501;51.462;14.346;2023-07-09T00:06:41;100587.22;;;21.51;53.51
29569;BME280;16501;51.462;14.346;2023-07-09T00:09:12;100593.78;;;21.46;53.10
29569;BME280;16501;51.462;14.346;2023-07-09T00:11:39;100614.34;;;21.58;52.88
29569;BME280;16501;51.462;14.346;2023-07-09T00:14:05;100612.59;;;21.55;52.58
29569;BME280;16501;51.462;14.346;2023-07-09T00:16:31;100621.00;;;21.47;52.79
29569;BME280;16501;51.462;14.346;2023-07-09T00:18:56;100600.69;;;21.32;52.63
29569;BME280;16501;51.462;14.346;2023-07-09T00:21:21;100613.34;;;21.36;51.61
29569;BME280;16501;51.462;14.346;2023-07-09T00:23:47;100606.50;;;21.26;51.74
29569;BME280;16501;51.462;14.346;2023-07-09T00:26:16;100619.38;;;21.33;51.97
29569;BME280;16501;51.462;14.346;2023-07-09T00:28:43;100610.72;;;21.19;51.72
29569;BME280;16501;51.462;14.346;2023-07-09T00:31:11;100608.88;;;21.22;51.99
29569;BME280;16501;51.462;14.346;2023-07-09T00:33:38;100610.50;;;21.17;51.99
29569;BME280;16501;51.462;14.346;2023-07-09T00:36:11;100600.78;;;21.07;52.10
29569;BME280;16501;51.462;14.346;2023-07-09T00:38:39;100604.97;;;21.06;51.76
29569;BME280;16501;51.462;14.346;2023-07-09T00:41:13;100608.81;;;21.08;52.03
29569;BME280;16501;51.462;14.346;2023-07-09T00:43:43;100605.19;;;21.08;51.95
29569;BME280;16501;51.462;14.346;2023-07-09T00:48:40;100607.09;;;21.00;52.47
29569;BME280;16501;51.462;14.346;2023-07-09T00:51:11;100612.34;;;20.96;52.38
29569;BME280;16501;51.462;14.346;2023-07-09T00:53:38;100593.88;;;20.83;52.43
29569;BME280;16501;51.462;14.346;2023-07-09T00:56:13;100594.94;;;20.80;53.24
29569;BME280;16501;51.462;14.346;2023-07-09T00:58:40;100598.63;;;20.75;53.48
29569;BME280;16501;51.462;14.346;2023-07-09T01:01:11;100598.63;;;20.75;53.65
29569;BME280;16501;51.462;14.346;2023-07-09T01:03:42;100604.63;;;20.71;53.63
29569;BME280;16501;51.462;14.346;2023-07-09T01:06:10;100595.66;;;20.62;53.67
29569;BME280;16501;51.462;14.346;2023-07-09T01:08:39;100596.91;;;20.66;54.53
29569;BME280;16501;51.462;14.346;2023-07-09T01:11:15;100600.34;;;20.59;55.23
29569;BME280;16501;51.462;14.346;2023-07-09T01:13:46;100599.09;;;20.54;54.14
29569;BME280;16501;51.462;14.346;2023-07-09T01:16:11;100590.31;;;20.28;54.60
29569;BME280;16501;51.462;14.346;2023-07-09T01:18:36;100614.53;;;20.40;55.19
29569;BME280;16501;51.462;14.346;2023-07-09T01:21:08;100602.69;;;20.36;54.96
29569;BME280;16501;51.462;14.346;2023-07-09T01:23:45;100606.06;;;20.34;55.14
29569;BME280;16501;51.462;14.346;2023-07-09T01:26:12;100609.44;;;20.33;55.00
29569;BME280;16501;51.462;14.346;2023-07-09T01:28:38;100598.63;;;20.26;55.16
29569;BME280;16501;51.462;14.346;2023-07-09T01:31:14;100601.47;;;20.26;55.13
29569;BME280;16501;51.462;14.346;2023-07-09T01:33:41;100606.44;;;20.20;55.48
29569;BME280;16501;51.462;14.346;2023-07-09T01:36:11;100606.81;;;20.10;55.97
29569;BME280;16501;51.462;14.346;2023-07-09T01:38:39;100596.94;;;20.11;56.48
29569;BME280;16501;51.462;14.346;2023-07-09T01:41:04;100599.31;;;20.07;57.46
29569;BME280;16501;51.462;14.346;2023-07-09T01:43:31;100599.31;;;20.07;56.99
29569;BME280;16501;51.462;14.346;2023-07-09T01:45:56;100584.94;;;19.94;56.73
29569;BME280;16501;51.462;14.346;2023-07-09T01:48:24;100600.44;;;19.99;57.19
29569;BME280;16501;51.462;14.346;2023-07-09T01:50:50;100576.75;;;19.85;58.21
29569;BME280;16501;51.462;14.346;2023-07-09T01:53:18;100577.81;;;19.82;58.70
29569;BME280;16501;51.462;14.346;2023-07-09T01:55:44;100572.44;;;19.72;59.58
29569;BME280;16501;51.462;14.346;2023-07-09T01:58:10;100580.72;;;19.76;59.61
29569;BME280;16501;51.462;14.346;2023-07-09T02:00:38;100577.63;;;19.74;59.52
29569;BME280;16501;51.462;14.346;2023-07-09T02:03:06;100566.31;;;19.63;59.91
29569;BME280;16501;51.462;14.346;2023-07-09T02:05:32;100561.13;;;19.67;60.84
29569;BME280;16501;51.462;14.346;2023-07-09T02:07:58;100572.97;;;19.71;60.58
29569;BME280;16501;51.462;14.346;2023-07-09T02:10:23;100576.09;;;19.67;60.85
29569;BME280;16501;51.462;14.346;2023-07-09T02:12:49;100577.41;;;19.66;60.95
29569;BME280;16501;51.462;14.346;2023-07-09T02:15:15;100579.25;;;19.64;60.93
29569;BME280;16501;51.462;14.346;2023-07-09T02:17:40;100562.81;;;19.51;61.09
29569;BME280;16501;51.462;14.346;2023-07-09T02:20:07;100578.50;;;19.57;61.60
29569;BME280;16501;51.462;14.346;2023-07-09T02:22:34;100578.56;;;19.52;62.23
29569;BME280;16501;51.462;14.346;2023-07-09T02:24:59;100555.69;;;19.33;62.78
29569;BME280;16501;51.462;14.346;2023-07-09T02:27:25;100597.97;;;19.48;62.26
29569;BME280;16501;51.462;14.346;2023-07-09T02:29:50;100603.81;;;19.25;62.65
29569;BME280;16501;51.462;14.346;2023-07-09T02:32:21;100607.94;;;19.24;62.61
29569;BME280;16501;51.462;14.346;2023-07-09T02:34:47;100614.94;;;19.23;62.70
29569;BME280;16501;51.462;14.346;2023-07-09T02:37:19;100587.88;;;19.11;63.14
29569;BME280;16501;51.462;14.346;2023-07-09T02:39:45;100600.50;;;19.21;64.27
29569;BME280;16501;51.462;14.346;2023-07-09T02:42:11;100599.41;;;19.24;63.36
29569;BME280;16501;51.462;14.346;2023-07-09T02:44:39;100607.50;;;19.14;63.51
29569;BME280;16501;51.462;14.346;2023-07-09T02:47:04;100602.63;;;19.03;63.71
29569;BME280;16501;51.462;14.346;2023-07-09T02:49:30;100600.84;;;19.00;63.84
29569;BME280;16501;51.462;14.346;2023-07-09T02:51:55;100591.81;;;18.96;64.05
29569;BME280;16501;51.462;14.346;2023-07-09T02:54:20;100583.31;;;18.91;63.92
29569;BME280;16501;51.462;14.346;2023-07-09T02:56:46;100604.47;;;19.01;64.84
29569;BME280;16501;51.462;14.346;2023-07-09T02:59:11;100599.59;;;18.90;65.43
29569;BME280;16501;51.462;14.346;2023-07-09T03:01:37;100604.25;;;18.88;64.82
29569;BME280;16501;51.462;14.346;2023-07-09T03:04:02;100610.22;;;18.90;64.85
29569;BME280;16501;51.462;14.346;2023-07-09T03:06:29;100616.41;;;18.88;64.72
29569;BME280;16501;51.462;14.346;2023-07-09T03:08:54;100596.81;;;18.73;65.66
29569;BME280;16501;51.462;14.346;2023-07-09T03:11:20;100607.91;;;18.71;65.08
29569;BME280;16501;51.462;14.346;2023-07-09T03:13:46;100622.63;;;18.75;65.33
29569;BME280;16501;51.462;14.346;2023-07-09T03:16:11;100622.41;;;18.68;65.89
29569;BME280;16501;51.462;14.346;2023-07-09T03:18:38;100620.34;;;18.62;66.04
29569;BME280;16501;51.462;14.346;2023-07-09T03:21:03;100634.00;;;18.70;65.81
29569;BME280;16501;51.462;14.346;2023-07-09T03:23:29;100622.41;;;18.62;64.83
29569;BME280;16501;51.462;14.346;2023-07-09T03:25:55;100625.75;;;18.66;64.87
29569;BME280;16501;51.462;14.346;2023-07-09T03:28:21;100633.00;;;18.67;65.25
29569;BME280;16501;51.462;14.346;2023-07-09T03:30:47;100643.06;;;18.62;65.73
29569;BME280;16501;51.462;14.346;2023-07-09T03:33:15;100633.78;;;18.56;66.08
29569;BME280;16501;51.462;14.346;2023-07-09T03:35:40;100639.44;;;18.56;66.02
29569;BME280;16501;51.462;14.346;2023-07-09T03:38:07;100632.50;;;18.57;65.97
29569;BME280;16501;51.462;14.346;2023-07-09T03:40:32;100639.97;;;18.60;65.76
29569;BME280;16501;51.462;14.346;2023-07-09T03:42:57;100596.91;;;18.34;65.93
29569;BME280;16501;51.462;14.346;2023-07-09T03:45:23;100644.59;;;18.63;65.88
29569;BME280;16501;51.462;14.346;2023-07-09T03:47:49;100642.03;;;18.65;65.16
29569;BME280;16501;51.462;14.346;2023-07-09T03:50:14;100637.13;;;18.66;64.93
29569;BME280;16501;51.462;14.346;2023-07-09T03:52:40;100627.34;;;18.56;66.33
29569;BME280;16501;51.462;14.346;2023-07-09T03:55:05;100644.59;;;18.63;66.96
29569;BME280;16501;51.462;14.346;2023-07-09T03:57:32;100632.50;;;18.57;66.63
29569;BME280;16501;51.462;14.346;2023-07-09T03:59:57;100630.66;;;18.60;67.00
29569;BME280;16501;51.462;14.346;2023-07-09T04:02:23;100648.47;;;18.66;66.70
29569;BME280;16501;51.462;14.346;2023-07-09T04:04:48;100650.50;;;18.77;66.33
29569;BME280;16501;51.462;14.346;2023-07-09T04:07:14;100646.66;;;18.74;66.04
29569;BME280;16501;51.462;14.346;2023-07-09T04:09:41;100638.41;;;18.71;66.71
29569;BME280;16501;51.462;14.346;2023-07-09T04:12:07;100625.47;;;18.70;66.87
29569;BME280;16501;51.462;14.346;2023-07-09T04:14:33;100645.06;;;18.79;67.62
29569;BME280;16501;51.462;14.346;2023-07-09T04:16:59;100640.19;;;18.79;67.88
29569;BME280;16501;51.462;14.346;2023-07-09T04:19:24;100637.09;;;18.72;69.18
29569;BME280;16501;51.462;14.346;2023-07-09T04:21:50;100649.75;;;18.82;69.68
29569;BME280;16501;51.462;14.346;2023-07-09T04:24:16;100649.47;;;18.86;68.91
29569;BME280;16501;51.462;14.346;2023-07-09T04:26:42;100650.50;;;18.88;69.98
29569;BME280;16501;51.462;14.346;2023-07-09T04:29:07;100647.66;;;18.88;69.87
29569;BME280;16501;51.462;14.346;2023-07-09T04:31:32;100641.19;;;18.88;70.54
29569;BME280;16501;51.462;14.346;2023-07-09T04:33:58;100662.56;;;19.00;70.07
29569;BME280;16501;51.462;14.346;2023-07-09T04:36:23;100659.72;;;19.06;70.24
29569;BME280;16501;51.462;14.346;2023-07-09T04:38:48;100659.47;;;19.03;70.65
29569;BME280;16501;51.462;14.346;2023-07-09T04:41:14;100655.81;;;19.09;70.65
29569;BME280;16501;51.462;14.346;2023-07-09T04:43:39;100668.97;;;19.17;70.35
29569;BME280;16501;51.462;14.346;2023-07-09T04:46:06;100663.78;;;19.21;70.45
29569;BME280;16501;51.462;14.346;2023-07-09T04:48:32;100663.75;;;19.27;70.14
29569;BME280;16501;51.462;14.346;2023-07-09T04:50:57;100668.84;;;19.40;69.40
29569;BME280;16501;51.462;14.346;2023-07-09T04:53:24;100666.50;;;19.44;69.30
29569;BME280;16501;51.462;14.346;2023-07-09T04:55:49;100664.97;;;19.43;69.73
29569;BME280;16501;51.462;14.346;2023-07-09T04:58:15;100670.84;;;19.56;69.78
29569;BME280;16501;51.462;14.346;2023-07-09T05:00:41;100663.06;;;19.57;69.79
29569;BME280;16501;51.462;14.346;2023-07-09T05:03:07;100673.88;;;19.64;68.90
29569;BME280;16501;51.462;14.346;2023-07-09T05:05:32;100676.69;;;19.75;68.79
29569;BME280;16501;51.462;14.346;2023-07-09T05:07:58;100668.88;;;19.82;68.57
29569;BME280;16501;51.462;14.346;2023-07-09T05:10:23;100670.59;;;19.96;67.37
29569;BME280;16501;51.462;14.346;2023-07-09T05:12:54;100663.56;;;19.97;65.76
29569;BME280;16501;51.462;14.346;2023-07-09T05:15:21;100681.16;;;20.01;63.39
29569;BME280;16501;51.462;14.346;2023-07-09T05:17:46;100666.94;;;19.95;64.52
29569;BME280;16501;51.462;14.346;2023-07-09T05:20:13;100673.84;;;20.06;65.30
29569;BME280;16501;51.462;14.346;2023-07-09T05:22:38;100676.91;;;20.13;63.39
29569;BME280;16501;51.462;14.346;2023-07-09T05:25:04;100666.75;;;20.18;65.59
29569;BME280;16501;51.462;14.346;2023-07-09T05:27:29;100677.00;;;20.32;65.22
29569;BME280;16501;51.462;14.346;2023-07-09T05:29:54;100684.06;;;20.50;66.08
29569;BME280;16501;51.462;14.346;2023-07-09T05:32:20;100686.34;;;20.58;65.69
29569;BME280;16501;51.462;14.346;2023-07-09T05:34:45;100681.84;;;20.68;63.32
29569;BME280;16501;51.462;14.346;2023-07-09T05:37:11;100683.34;;;20.75;64.31
29569;BME280;16501;51.462;14.346;2023-07-09T05:39:36;100675.03;;;20.77;64.38
29569;BME280;16501;51.462;14.346;2023-07-09T05:42:01;100664.63;;;20.79;65.76
29569;BME280;16501;51.462;14.346;2023-07-09T05:44:27;100687.66;;;21.06;63.36
29569;BME280;16501;51.462;14.346;2023-07-09T05:46:52;100676.78;;;21.04;63.39
29569;BME280;16501;51.462;14.346;2023-07-09T05:49:17;100676.91;;;21.12;63.57
29569;BME280;16501;51.462;14.346;2023-07-09T05:51:42;100700.22;;;21.35;64.30
29569;BME280;16501;51.462;14.346;2023-07-09T05:54:08;100699.84;;;21.44;63.37
29569;BME280;16501;51.462;14.346;2023-07-09T05:56:33;100681.97;;;21.44;62.50
29569;BME280;16501;51.462;14.346;2023-07-09T05:58:59;100694.00;;;21.56;64.29
29569;BME280;16501;51.462;14.346;2023-07-09T06:01:24;100686.50;;;21.72;63.50
29569;BME280;16501;51.462;14.346;2023-07-09T06:03:50;100686.75;;;21.74;62.70
29569;BME280;16501;51.462;14.346;2023-07-09T06:06:15;100686.50;;;21.72;61.11
29569;BME280;16501;51.462;14.346;2023-07-09T06:08:41;100693.75;;;21.73;60.95
29569;BME280;16501;51.462;14.346;2023-07-09T06:11:06;100685.75;;;21.71;60.96
29569;BME280;16501;51.462;14.346;2023-07-09T06:13:32;100681.41;;;21.83;61.44
29569;BME280;16501;51.462;14.346;2023-07-09T06:16:00;100680.22;;;21.92;59.78
29569;BME280;16501;51.462;14.346;2023-07-09T06:18:26;100703.25;;;22.13;60.06
29569;BME280;16501;51.462;14.346;2023-07-09T06:20:56;100682.72;;;22.15;60.39
29569;BME280;16501;51.462;14.346;2023-07-09T06:23:21;100698.38;;;22.27;59.18
29569;BME280;16501;51.462;14.346;2023-07-09T06:25:47;100703.22;;;22.32;59.85
29569;BME280;16501;51.462;14.346;2023-07-09T06:28:14;100706.41;;;22.29;59.30
29569;BME280;16501;51.462;14.346;2023-07-09T06:30:40;100695.13;;;22.36;60.72
29569;BME280;16501;51.462;14.346;2023-07-09T06:33:05;100693.56;;;22.35;59.32
29569;BME280;16501;51.462;14.346;2023-07-09T06:35:31;100709.00;;;22.59;59.32
29569;BME280;16501;51.462;14.346;2023-07-09T06:37:57;100708.88;;;22.65;58.25
29569;BME280;16501;51.462;14.346;2023-07-09T06:40:22;100695.78;;;22.69;58.66
29569;BME280;16501;51.462;14.346;2023-07-09T06:42:48;100707.91;;;22.89;59.59
29569;BME280;16501;51.462;14.346;2023-07-09T06:45:13;100704.59;;;22.98;57.83
29569;BME280;16501;51.462;14.346;2023-07-09T06:47:38;100710.34;;;23.11;57.20
29569;BME280;16501;51.462;14.346;2023-07-09T06:50:04;100706.69;;;23.24;57.33
29569;BME280;16501;51.462;14.346;2023-07-09T06:52:29;100710.19;;;23.44;58.13
29569;BME280;16501;51.462;14.346;2023-07-09T06:54:54;100708.19;;;23.52;58.19
29569;BME280;16501;51.462;14.346;2023-07-09T06:57:20;100708.72;;;23.64;58.47
29569;BME280;16501;51.462;14.346;2023-07-09T06:59:45;100699.78;;;23.67;57.21
29569;BME280;16501;51.462;14.346;2023-07-09T07:02:10;100708.00;;;23.84;62.89
29569;BME280;16501;51.462;14.346;2023-07-09T07:04:36;100709.84;;;23.95;58.73
29569;BME280;16501;51.462;14.346;2023-07-09T07:07:01;100710.53;;;24.09;58.94
29569;BME280;16501;51.462;14.346;2023-07-09T07:09:27;100695.94;;;23.99;58.25
29569;BME280;16501;51.462;14.346;2023-07-09T07:11:52;100699.69;;;24.15;60.41
29569;BME280;16501;51.462;14.346;2023-07-09T07:14:17;100708.78;;;24.27;62.52
29569;BME280;16501;51.462;14.346;2023-07-09T07:16:42;100705.22;;;24.34;58.75
29569;BME280;16501;51.462;14.346;2023-07-09T07:19:08;100699.31;;;24.40;64.34
29569;BME280;16501;51.462;14.346;2023-07-09T07:21:34;100708.28;;;24.57;62.76
29569;BME280;16501;51.462;14.346;2023-07-09T07:23:59;100698.84;;;24.49;59.89
29569;BME280;16501;51.462;14.346;2023-07-09T07:26:25;100711.81;;;24.71;58.91
29569;BME280;16501;51.462;14.346;2023-07-09T07:28:50;100705.94;;;24.77;59.57
29569;BME280;16501;51.462;14.346;2023-07-09T07:31:15;100716.94;;;24.94;60.70
29569;BME280;16501;51.462;14.346;2023-07-09T07:33:41;100711.25;;;25.01;57.80
29569;BME280;16501;51.462;14.346;2023-07-09T07:36:07;100717.78;;;25.10;58.62
29569;BME280;16501;51.462;14.346;2023-07-09T07:38:32;100724.25;;;25.31;60.06
29569;BME280;16501;51.462;14.346;2023-07-09T07:40:58;100717.78;;;25.38;54.45
29569;BME280;16501;51.462;14.346;2023-07-09T07:43:23;100707.09;;;25.47;57.43
29569;BME280;16501;51.462;14.346;2023-07-09T07:45:48;100706.16;;;25.52;58.00
29569;BME280;16501;51.462;14.346;2023-07-09T07:48:14;100718.25;;;25.66;54.58
29569;BME280;16501;51.462;14.346;2023-07-09T07:50:39;100716.00;;;25.80;54.11
29569;BME280;16501;51.462;14.346;2023-07-09T07:53:06;100709.66;;;25.81;53.27
29569;BME280;16501;51.462;14.346;2023-07-09T07:55:35;100697.44;;;25.88;52.19
29569;BME280;16501;51.462;14.346;2023-07-09T07:58:01;100713.59;;;26.14;52.73
29569;BME280;16501;51.462;14.346;2023-07-09T08:00:28;100718.97;;;26.26;46.98
29569;BME280;16501;51.462;14.346;2023-07-09T08:02:54;100717.44;;;26.32;48.71
29569;BME280;16501;51.462;14.346;2023-07-09T08:05:19;100711.69;;;26.48;47.24
29569;BME280;16501;51.462;14.346;2023-07-09T08:07:44;100710.16;;;26.55;44.69
29569;BME280;16501;51.462;14.346;2023-07-09T08:10:10;100721.06;;;26.79;42.89
29569;BME280;16501;51.462;14.346;2023-07-09T08:12:37;100689.44;;;26.71;41.86
29569;BME280;16501;51.462;14.346;2023-07-09T08:15:02;100706.84;;;26.97;41.83
29569;BME280;16501;51.462;14.346;2023-07-09T08:17:28;100720.00;;;27.15;40.79
29569;BME280;16501;51.462;14.346;2023-07-09T08:19:54;100702.38;;;27.11;42.97
29569;BME280;16501;51.462;14.346;2023-07-09T08:22:20;100698.88;;;27.20;40.81
29569;BME280;16501;51.462;14.346;2023-07-09T08:24:46;100716.88;;;27.44;40.66
29569;BME280;16501;51.462;14.346;2023-07-09T08:27:12;100699.78;;;27.46;40.59
29569;BME280;16501;51.462;14.346;2023-07-09T08:29:37;100713.63;;;27.73;42.05
29569;BME280;16501;51.462;14.346;2023-07-09T08:32:04;100705.19;;;27.75;39.97
29569;BME280;16501;51.462;14.346;2023-07-09T08:34:30;100696.84;;;27.87;39.21
29569;BME280;16501;51.462;14.346;2023-07-09T08:36:55;100714.31;;;27.96;36.60
29569;BME280;16501;51.462;14.346;2023-07-09T08:39:20;100705.22;;;28.08;38.11
29569;BME280;16501;51.462;14.346;2023-07-09T08:41:54;100706.06;;;28.18;36.80
29569;BME280;16501;51.462;14.346;2023-07-09T08:47:32;100693.78;;;28.17;35.82
29569;BME280;16501;51.462;14.346;2023-07-09T08:50:02;100709.53;;;28.42;33.07
29569;BME280;16501;51.462;14.346;2023-07-09T08:52:33;100689.34;;;28.42;34.75
29569;BME280;16501;51.462;14.346;2023-07-09T08:55:05;100701.72;;;28.59;33.55
29569;BME280;16501;51.462;14.346;2023-07-09T08:57:37;100711.81;;;28.68;32.50
29569;BME280;16501;51.462;14.346;2023-07-09T09:00:34;100708.78;;;28.84;33.62
29569;BME280;16501;51.462;14.346;2023-07-09T09:03:10;100693.44;;;28.81;32.83
29569;BME280;16501;51.462;14.346;2023-07-09T09:05:43;100706.56;;;29.09;32.20
29569;BME280;16501;51.462;14.346;2023-07-09T09:08:33;100705.03;;;29.08;31.02
29569;BME280;16501;51.462;14.346;2023-07-09T09:11:12;100697.41;;;29.21;31.63
29569;BME280;16501;51.462;14.346;2023-07-09T09:13:39;100699.88;;;29.24;31.01
29569;BME280;16501;51.462;14.346;2023-07-09T09:16:13;100708.03;;;29.36;29.89
29569;BME280;16501;51.462;14.346;2023-07-09T09:18:43;100682.75;;;29.26;29.78
29569;BME280;16501;51.462;14.346;2023-07-09T09:21:26;100695.00;;;29.44;29.14
29569;BME280;16501;51.462;14.346;2023-07-09T09:23:56;100703.78;;;29.64;29.73
29569;BME280;16501;51.462;14.346;2023-07-09T09:26:28;100707.56;;;29.57;28.95
29569;BME280;16501;51.462;14.346;2023-07-09T09:28:55;100709.22;;;29.77;30.13
29569;BME280;16501;51.462;14.346;2023-07-09T09:31:20;100706.06;;;29.83;29.12
29569;BME280;16501;51.462;14.346;2023-07-09T09:33:48;100697.44;;;29.93;29.88
29569;BME280;16501;51.462;14.346;2023-07-09T09:36:23;100701.97;;;30.23;30.86
29569;BME280;16501;51.462;14.346;2023-07-09T09:38:49;100694.03;;;30.23;30.90
29569;BME280;16501;51.462;14.346;2023-07-09T09:41:21;100702.56;;;30.21;29.03
29569;BME280;16501;51.462;14.346;2023-07-09T09:43:47;100672.13;;;30.20;29.42
29569;BME280;16501;51.462;14.346;2023-07-09T09:46:21;100691.94;;;30.34;29.13
29569;BME280;16501;51.462;14.346;2023-07-09T09:48:49;100697.94;;;30.45;29.46
29569;BME280;16501;51.462;14.346;2023-07-09T09:51:16;100694.91;;;30.43;29.97
29569;BME280;16501;51.462;14.346;2023-07-09T09:53:57;100705.28;;;30.47;28.00
29569;BME280;16501;51.462;14.346;2023-07-09T09:56:29;100691.72;;;30.49;28.30
29569;BME280;16501;51.462;14.346;2023-07-09T09:58:57;100701.63;;;30.56;29.36
29569;BME280;16501;51.462;14.346;2023-07-09T10:01:34;100675.88;;;30.50;27.76
29569;BME280;16501;51.462;14.346;2023-07-09T10:04:01;100691.28;;;30.62;27.49
29569;BME280;16501;51.462;14.346;2023-07-09T10:06:36;100691.59;;;30.86;28.41
29569;BME280;16501;51.462;14.346;2023-07-09T10:09:19;100664.63;;;30.74;28.39
29569;BME280;16501;51.462;14.346;2023-07-09T10:11:54;100696.06;;;31.07;28.01
29569;BME280;16501;51.462;14.346;2023-07-09T10:14:37;100688.75;;;31.15;27.93
29569;BME280;16501;51.462;14.346;2023-07-09T10:17:14;100690.09;;;31.34;28.65
29569;BME280;16501;51.462;14.346;2023-07-09T10:19:48;100693.75;;;31.44;27.72
29569;BME280;16501;51.462;14.346;2023-07-09T10:22:39;100699.41;;;31.42;27.84
29569;BME280;16501;51.462;14.346;2023-07-09T10:28:06;100698.91;;;31.65;28.02
29569;BME280;16501;51.462;14.346;2023-07-09T10:30:52;100697.69;;;31.49;26.66
29569;BME280;16501;51.462;14.346;2023-07-09T10:33:53;100692.97;;;31.63;25.94
29569;BME280;16501;51.462;14.346;2023-07-09T10:36:34;100686.53;;;31.74;26.32
29569;BME280;16501;51.462;14.346;2023-07-09T10:39:26;100692.59;;;31.79;25.58
29569;BME280;16501;51.462;14.346;2023-07-09T10:41:56;100690.81;;;31.73;26.30
29569;BME280;16501;51.462;14.346;2023-07-09T10:44:30;100693.84;;;31.75;26.05
29569;BME280;16501;51.462;14.346;2023-07-09T10:47:05;100690.22;;;31.65;25.63
29569;BME280;16501;51.462;14.346;2023-07-09T10:49:35;100688.06;;;31.75;26.67
29569;BME280;16501;51.462;14.346;2023-07-09T10:52:20;100685.56;;;31.82;26.01
29569;BME280;16501;51.462;14.346;2023-07-09T10:54:59;100681.91;;;31.91;26.50
29569;BME280;16501;51.462;14.346;2023-07-09T10:58:00;100673.75;;;31.99;26.11
29569;BME280;16501;51.462;14.346;2023-07-09T11:00:36;100667.81;;;31.97;25.95
29569;BME280;16501;51.462;14.346;2023-07-09T11:03:24;100686.91;;;31.90;25.50
29569;BME280;16501;51.462;14.346;2023-07-09T11:05:54;100675.28;;;32.00;25.73
29569;BME280;16501;51.462;14.346;2023-07-09T11:08:34;100671.16;;;32.03;25.00
29569;BME280;16501;51.462;14.346;2023-07-09T11:11:04;100663.03;;;32.11;24.96
29569;BME280;16501;51.462;14.346;2023-07-09T11:13:39;100678.22;;;32.31;25.22
29569;BME280;16501;51.462;14.346;2023-07-09T11:16:07;100678.00;;;32.39;25.47
29569;BME280;16501;51.462;14.346;2023-07-09T11:18:37;100666.69;;;32.43;25.92
29569;BME280;16501;51.462;14.346;2023-07-09T11:21:13;100673.63;;;32.60;25.95
29569;BME280;16501;51.462;14.346;2023-07-09T11:23:46;100660.78;;;32.63;26.01
29569;BME280;16501;51.462;14.346;2023-07-09T11:26:35;100660.56;;;32.70;25.97
29569;BME280;16501;51.462;14.346;2023-07-09T11:34:08;100658.56;;;32.73;26.95
29569;BME280;16501;51.462;14.346;2023-07-09T11:36:34;100656.53;;;32.76;24.71
29569;BME280;16501;51.462;14.346;2023-07-09T11:39:27;100650.13;;;32.77;25.17
29569;BME280;16501;51.462;14.346;2023-07-09T11:41:53;100640.38;;;32.73;26.94
29569;BME280;16501;51.462;14.346;2023-07-09T11:44:26;100641.66;;;32.81;26.42
29569;BME280;16501;51.462;14.346;2023-07-09T11:49:51;100638.88;;;33.05;26.92
29569;BME280;16501;51.462;14.346;2023-07-09T11:55:19;100639.81;;;33.19;24.69
29569;BME280;16501;51.462;14.346;2023-07-09T11:57:53;100631.94;;;33.10;24.72
29569;BME280;16501;51.462;14.346;2023-07-09T12:00:18;100622.13;;;33.15;23.84
29569;BME280;16501;51.462;14.346;2023-07-09T12:02:44;100624.22;;;33.03;26.98
29569;BME280;16501;51.462;14.346;2023-07-09T12:05:09;100619.84;;;33.14;25.63
29569;BME280;16501;51.462;14.346;2023-07-09T12:07:35;100632.00;;;33.22;25.55
29569;BME280;16501;51.462;14.346;2023-07-09T12:10:03;100630.00;;;33.24;24.72
29569;BME280;16501;51.462;14.346;2023-07-09T12:12:29;100609.41;;;33.20;26.49
29569;BME280;16501;51.462;14.346;2023-07-09T12:14:54;100604.72;;;33.15;25.16
29569;BME280;16501;51.462;14.346;2023-07-09T12:17:23;100623.44;;;33.24;25.83
29569;BME280;16501;51.462;14.346;2023-07-09T12:19:52;100608.28;;;33.25;25.68
29569;BME280;16501;51.462;14.346;2023-07-09T12:22:20;100603.34;;;33.28;24.82
29569;BME280;16501;51.462;14.346;2023-07-09T12:24:48;100602.34;;;33.23;25.70
29569;BME280;16501;51.462;14.346;2023-07-09T12:27:21;100589.25;;;33.13;24.55
29569;BME280;16501;51.462;14.346;2023-07-09T12:29:50;100597.53;;;33.16;25.59
29569;BME280;16501;51.462;14.346;2023-07-09T12:32:17;100592.75;;;33.33;24.24
29569;BME280;16501;51.462;14.346;2023-07-09T12:34:46;100599.06;;;33.29;24.60
29569;BME280;16501;51.462;14.346;2023-07-09T12:37:14;100595.03;;;33.34;24.92
29569;BME280;16501;51.462;14.346;2023-07-09T12:39:39;100586.56;;;33.38;25.55
29569;BME280;16501;51.462;14.346;2023-07-09T12:42:05;100584.28;;;33.37;25.44
29569;BME280;16501;51.462;14.346;2023-07-09T12:44:34;100601.34;;;33.54;25.30
29569;BME280;16501;51.462;14.346;2023-07-09T12:47:01;100590.13;;;33.60;25.55
29569;BME280;16501;51.462;14.346;2023-07-09T12:49:28;100580.50;;;33.58;23.81
29569;BME280;16501;51.462;14.346;2023-07-09T12:52:14;100583.94;;;33.66;24.17
29569;BME280;16501;51.462;14.346;2023-07-09T12:54:52;100580.03;;;33.73;24.42
29569;BME280;16501;51.462;14.346;2023-07-09T12:57:17;100575.34;;;33.80;24.17
29569;BME280;16501;51.462;14.346;2023-07-09T12:59:45;100579.41;;;33.87;25.43
29569;BME280;16501;51.462;14.346;2023-07-09T13:02:20;100574.97;;;33.86;23.78
29569;BME280;16501;51.462;14.346;2023-07-09T13:04:46;100570.16;;;33.90;24.51
29569;BME280;16501;51.462;14.346;2023-07-09T13:07:39;100576.50;;;33.87;25.26